createdAt,value
2024-01-31T00:00:21.429Z,30.39
2024-01-31T00:01:21.552Z,30.38
2024-01-31T00:02:21.518Z,30.38
2024-01-31T00:03:21.578Z,30.37
2024-01-31T00:04:21.690Z,30.36
2024-01-31T00:05:21.776Z,30.35
2024-01-31T00:06:21.789Z,30.33
2024-01-31T00:55:42.121Z,30.62
2024-01-31T00:56:22.064Z,30.36
2024-01-31T00:57:22.054Z,30.22
2024-01-31T00:58:22.085Z,30.18
2024-01-31T00:59:22.056Z,30.13
2024-01-31T01:00:22.068Z,30.09
2024-01-31T01:01:22.143Z,30.03
2024-01-31T01:02:22.070Z,30.05
2024-01-31T01:03:22.158Z,30.00
2024-01-31T01:04:22.169Z,29.99
2024-01-31T01:05:22.069Z,29.97
2024-01-31T01:06:22.141Z,29.95
2024-01-31T01:07:22.102Z,29.96
2024-01-31T01:08:22.081Z,29.95
2024-01-31T01:09:22.107Z,29.91
2024-01-31T01:10:22.161Z,29.92
2024-01-31T01:11:22.108Z,29.92
2024-01-31T01:12:22.084Z,29.91
2024-01-31T01:13:22.109Z,29.90
2024-01-31T01:14:22.085Z,29.87
2024-01-31T01:15:22.089Z,29.86
2024-01-31T01:16:22.111Z,29.86
2024-01-31T01:17:22.084Z,29.88
2024-01-31T01:18:22.090Z,29.85
2024-01-31T01:19:22.222Z,29.83
2024-01-31T01:20:22.155Z,29.84
2024-01-31T01:21:22.131Z,29.81
2024-01-31T01:22:22.128Z,29.81
2024-01-31T01:23:22.110Z,29.79
2024-01-31T01:24:22.114Z,29.80
2024-01-31T01:25:22.131Z,29.78
2024-01-31T01:26:22.108Z,29.78
2024-01-31T01:27:22.131Z,29.80
2024-01-31T01:28:22.124Z,29.77
2024-01-31T01:29:22.113Z,29.74
2024-01-31T01:30:22.127Z,29.73
2024-01-31T01:31:22.222Z,29.75
2024-01-31T01:32:22.133Z,29.74
2024-01-31T01:33:22.192Z,29.73
2024-01-31T01:34:22.202Z,29.72
2024-01-31T01:35:22.179Z,29.74
2024-01-31T01:36:22.227Z,29.72
2024-01-31T01:37:22.326Z,29.71
2024-01-31T01:38:22.327Z,29.68
2024-01-31T01:39:22.377Z,29.74
2024-01-31T01:40:22.466Z,29.68
2024-01-31T01:41:22.483Z,29.69
2024-01-31T01:42:22.548Z,29.67
2024-01-31T01:43:22.663Z,29.68
2024-01-31T01:44:22.642Z,29.67
2024-01-31T01:45:22.682Z,29.68
2024-01-31T01:46:22.841Z,29.64
2024-01-31T01:47:22.819Z,29.67
2024-01-31T01:48:22.969Z,29.65
2024-01-31T01:49:22.928Z,29.62
2024-01-31T01:50:22.954Z,29.64
2024-01-31T01:51:23.004Z,29.64
2024-01-31T01:52:23.151Z,29.63
2024-01-31T01:53:23.121Z,29.61
2024-01-31T01:54:23.175Z,29.63
2024-01-31T01:55:23.324Z,29.62
2024-01-31T01:56:23.247Z,29.61
2024-01-31T01:57:23.297Z,29.60
2024-01-31T01:58:23.387Z,29.61
2024-01-31T01:59:23.436Z,29.56
2024-01-31T02:00:23.465Z,29.58
2024-01-31T02:01:23.703Z,29.59
2024-01-31T02:02:23.586Z,29.58
2024-01-31T02:03:23.631Z,29.55
2024-01-31T02:04:23.797Z,29.54
2024-01-31T02:05:23.782Z,29.56
2024-01-31T02:06:23.890Z,29.53
2024-01-31T02:07:23.911Z,29.55
2024-01-31T02:08:23.901Z,29.52
2024-01-31T02:09:23.983Z,29.52
2024-01-31T02:10:24.065Z,29.50
2024-01-31T02:11:24.056Z,29.51
2024-01-31T02:12:24.087Z,29.49
2024-01-31T02:13:24.166Z,29.51
2024-01-31T02:14:24.153Z,29.47
2024-01-31T02:15:24.212Z,29.49
2024-01-31T02:16:24.243Z,29.49
2024-01-31T02:17:24.286Z,29.49
2024-01-31T02:18:24.373Z,29.48
2024-01-31T02:19:24.431Z,29.50
2024-01-31T02:20:24.416Z,29.47
2024-01-31T02:21:24.476Z,29.46
2024-01-31T02:22:24.557Z,29.48
2024-01-31T02:23:24.600Z,29.45
2024-01-31T02:24:24.629Z,29.46
2024-01-31T02:25:24.762Z,29.45
2024-01-31T02:26:24.731Z,29.46
2024-01-31T02:27:24.777Z,29.42
2024-01-31T02:28:24.859Z,29.45
2024-01-31T02:29:24.878Z,29.42
2024-01-31T02:30:24.930Z,29.40
2024-01-31T02:31:25.055Z,29.39
2024-01-31T02:32:25.038Z,29.40
2024-01-31T02:33:25.102Z,29.39
2024-01-31T02:34:25.229Z,29.40
2024-01-31T02:35:25.200Z,29.40
2024-01-31T02:36:25.245Z,29.40
2024-01-31T02:37:25.334Z,29.37
2024-01-31T02:38:25.370Z,29.36
2024-01-31T02:39:25.422Z,29.33
2024-01-31T02:40:25.532Z,29.35
2024-01-31T02:41:25.533Z,29.33
2024-01-31T02:42:25.573Z,29.35
2024-01-31T02:43:25.676Z,29.36
2024-01-31T02:44:25.671Z,29.35
2024-01-31T02:45:25.725Z,29.34
2024-01-31T02:46:25.811Z,29.30
2024-01-31T02:47:25.826Z,29.29
2024-01-31T02:48:25.973Z,29.28
2024-01-31T02:49:25.974Z,29.30
2024-01-31T02:50:25.928Z,29.28
2024-01-31T02:51:25.982Z,29.29
2024-01-31T02:52:26.042Z,29.27
2024-01-31T02:53:26.099Z,29.28
2024-01-31T02:54:26.170Z,29.27
2024-01-31T02:55:26.215Z,29.25
2024-01-31T02:56:26.244Z,29.26
2024-01-31T02:57:26.315Z,29.27
2024-01-31T02:58:26.388Z,29.22
2024-01-31T02:59:26.392Z,29.23
2024-01-31T03:00:26.447Z,29.23
2024-01-31T03:01:26.599Z,29.21
2024-01-31T03:02:26.557Z,29.24
2024-01-31T03:03:26.638Z,29.21
2024-01-31T03:04:26.839Z,29.21
2024-01-31T03:05:26.790Z,29.19
2024-01-31T03:06:26.811Z,29.19
2024-01-31T03:07:26.833Z,29.19
2024-01-31T03:08:26.876Z,29.17
2024-01-31T03:09:26.923Z,29.19
2024-01-31T03:10:27.016Z,29.18
2024-01-31T03:11:27.028Z,29.19
2024-01-31T03:12:27.082Z,29.17
2024-01-31T03:13:27.203Z,29.17
2024-01-31T03:14:27.182Z,29.15
2024-01-31T03:15:27.273Z,29.16
2024-01-31T03:16:27.315Z,29.16
2024-01-31T03:17:27.349Z,29.14
2024-01-31T03:18:27.401Z,29.13
2024-01-31T03:19:27.523Z,29.13
2024-01-31T03:20:27.505Z,29.13
2024-01-31T03:21:27.562Z,29.12
2024-01-31T03:22:27.679Z,29.13
2024-01-31T03:23:27.643Z,29.12
2024-01-31T03:24:27.676Z,29.12
2024-01-31T03:25:27.743Z,29.12
2024-01-31T03:26:27.769Z,29.11
2024-01-31T03:27:27.873Z,29.10
2024-01-31T03:28:27.918Z,29.11
2024-01-31T03:29:27.943Z,29.05
2024-01-31T03:30:28.005Z,29.09
2024-01-31T03:31:28.079Z,29.09
2024-01-31T03:32:28.141Z,29.07
2024-01-31T03:33:28.210Z,29.07
2024-01-31T03:34:28.254Z,29.03
2024-01-31T03:35:28.306Z,29.08
2024-01-31T03:36:28.329Z,29.06
2024-01-31T03:37:28.503Z,29.04
2024-01-31T03:38:28.439Z,29.06
2024-01-31T03:39:28.496Z,29.05
2024-01-31T03:40:28.561Z,29.07
2024-01-31T03:41:28.580Z,29.05
2024-01-31T03:42:28.633Z,29.05
2024-01-31T03:43:28.701Z,29.03
2024-01-31T03:44:28.751Z,29.04
2024-01-31T03:45:28.832Z,29.04
2024-01-31T03:46:28.926Z,29.02
2024-01-31T03:47:28.952Z,29.03
2024-01-31T03:48:28.967Z,29.02
2024-01-31T03:49:28.989Z,29.02
2024-01-31T03:50:29.012Z,29.02
2024-01-31T03:51:29.118Z,29.03
2024-01-31T03:52:29.122Z,29.01
2024-01-31T03:53:29.180Z,29.00
2024-01-31T03:54:29.237Z,29.01
2024-01-31T03:55:29.281Z,28.99
2024-01-31T03:56:29.315Z,28.98
2024-01-31T03:57:29.366Z,28.98
2024-01-31T03:58:29.475Z,28.99
2024-01-31T03:59:29.500Z,28.99
2024-01-31T04:00:29.548Z,28.98
2024-01-31T04:01:29.683Z,28.97
2024-01-31T04:02:29.647Z,28.96
2024-01-31T04:03:29.726Z,28.94
2024-01-31T04:04:29.818Z,28.95
2024-01-31T04:05:30.151Z,28.93
2024-01-31T04:06:29.969Z,28.91
2024-01-31T04:07:30.021Z,28.96
2024-01-31T04:08:30.007Z,28.92
2024-01-31T04:09:30.052Z,28.94
2024-01-31T04:10:30.086Z,28.94
2024-01-31T04:11:30.107Z,28.90
2024-01-31T04:12:30.173Z,28.89
2024-01-31T04:13:30.251Z,28.90
2024-01-31T04:14:30.267Z,28.92
2024-01-31T04:15:30.315Z,28.90
2024-01-31T04:16:30.375Z,28.85
2024-01-31T04:17:30.434Z,28.86
2024-01-31T04:18:30.578Z,28.91
2024-01-31T04:19:30.596Z,28.84
2024-01-31T04:20:30.642Z,28.86
2024-01-31T04:21:30.678Z,28.85
2024-01-31T04:22:30.756Z,28.85
2024-01-31T04:23:30.939Z,28.83
2024-01-31T04:24:30.874Z,28.85
2024-01-31T04:25:30.941Z,28.85
2024-01-31T04:26:30.908Z,28.83
2024-01-31T04:27:31.023Z,28.81
2024-01-31T04:28:31.091Z,28.82
2024-01-31T04:29:31.145Z,28.81
2024-01-31T04:30:33.105Z,28.79
2024-01-31T04:31:31.149Z,28.79
2024-01-31T04:32:31.188Z,28.81
2024-01-31T04:33:31.283Z,28.81
2024-01-31T04:34:31.336Z,28.78
2024-01-31T04:35:31.160Z,28.77
2024-01-31T04:36:31.143Z,28.76
2024-01-31T04:37:31.217Z,28.74
2024-01-31T04:38:31.151Z,28.71
2024-01-31T04:39:31.247Z,28.73
2024-01-31T04:40:31.165Z,28.75
2024-01-31T04:41:31.149Z,28.74
2024-01-31T04:42:31.168Z,28.73
2024-01-31T04:43:31.249Z,28.71
2024-01-31T04:44:31.162Z,28.72
2024-01-31T04:45:31.199Z,28.73
2024-01-31T04:46:31.216Z,28.75
2024-01-31T04:47:38.454Z,28.77
2024-01-31T04:48:39.604Z,28.74
2024-01-31T04:49:39.537Z,28.76
2024-01-31T04:50:39.473Z,28.72
2024-01-31T04:51:39.450Z,28.73
2024-01-31T04:52:39.557Z,28.73
2024-01-31T04:53:39.449Z,28.71
2024-01-31T04:54:39.485Z,28.71
2024-01-31T04:55:39.500Z,28.72
2024-01-31T04:56:39.456Z,28.69
2024-01-31T04:57:39.474Z,28.70
2024-01-31T04:58:39.544Z,28.70
2024-01-31T04:59:39.461Z,28.67
2024-01-31T05:00:39.461Z,28.68
2024-01-31T05:01:39.547Z,28.68
2024-01-31T05:02:39.481Z,28.67
2024-01-31T05:03:39.503Z,28.67
2024-01-31T05:04:39.548Z,28.69
2024-01-31T05:05:39.562Z,28.65
2024-01-31T05:06:39.478Z,28.64
2024-01-31T05:07:39.501Z,28.66
2024-01-31T05:08:39.478Z,28.63
2024-01-31T05:09:39.483Z,28.64
2024-01-31T05:10:39.537Z,28.67
2024-01-31T05:11:39.478Z,28.67
2024-01-31T05:12:39.490Z,28.64
2024-01-31T05:13:39.551Z,28.63
2024-01-31T05:14:39.488Z,28.64
2024-01-31T05:15:39.493Z,28.62
2024-01-31T05:16:39.585Z,28.63
2024-01-31T05:17:39.510Z,28.64
2024-01-31T05:18:39.544Z,28.61
2024-01-31T05:19:39.596Z,28.62
2024-01-31T05:20:39.514Z,28.63
2024-01-31T05:21:39.514Z,28.62
2024-01-31T05:22:39.613Z,28.59
2024-01-31T05:23:39.599Z,28.58
2024-01-31T05:24:39.643Z,28.56
2024-01-31T05:25:39.762Z,28.58
2024-01-31T05:26:39.758Z,28.58
2024-01-31T05:27:39.783Z,28.62
2024-01-31T05:28:39.953Z,28.59
2024-01-31T05:29:39.883Z,28.57
2024-01-31T05:30:39.894Z,28.56
2024-01-31T05:31:39.968Z,28.58
2024-01-31T05:32:40.006Z,28.57
2024-01-31T05:33:40.044Z,28.57
2024-01-31T05:34:40.083Z,28.55
2024-01-31T05:35:40.090Z,28.54
2024-01-31T05:36:40.147Z,28.53
2024-01-31T05:37:40.787Z,28.53
2024-01-31T05:38:40.222Z,28.53
2024-01-31T05:39:40.262Z,28.53
2024-01-31T05:40:40.436Z,28.54
2024-01-31T05:41:40.344Z,28.54
2024-01-31T05:42:40.428Z,28.52
2024-01-31T05:43:40.505Z,28.51
2024-01-31T05:44:40.483Z,28.51
2024-01-31T05:45:40.517Z,28.50
2024-01-31T05:46:40.712Z,28.52
2024-01-31T05:47:40.631Z,28.51
2024-01-31T05:48:40.663Z,28.53
2024-01-31T05:49:40.774Z,28.48
2024-01-31T05:50:42.072Z,28.47
2024-01-31T05:51:40.767Z,28.48
2024-01-31T05:52:40.893Z,28.49
2024-01-31T05:53:40.846Z,28.48
2024-01-31T05:54:40.895Z,28.48
2024-01-31T05:55:40.979Z,28.48
2024-01-31T05:56:40.956Z,28.47
2024-01-31T05:57:40.988Z,28.46
2024-01-31T05:58:41.127Z,28.43
2024-01-31T05:59:41.068Z,28.45
2024-01-31T06:00:41.133Z,28.45
2024-01-31T06:01:41.256Z,28.45
2024-01-31T06:02:41.205Z,28.45
2024-01-31T06:03:41.277Z,28.47
2024-01-31T06:04:41.458Z,28.46
2024-01-31T06:05:41.338Z,28.44
2024-01-31T06:06:41.342Z,28.41
2024-01-31T06:07:41.502Z,28.42
2024-01-31T06:08:41.440Z,28.41
2024-01-31T06:09:41.465Z,28.39
2024-01-31T06:10:41.557Z,28.41
2024-01-31T06:11:41.538Z,28.37
2024-01-31T06:12:41.567Z,28.42
2024-01-31T06:13:42.223Z,28.41
2024-01-31T06:14:41.681Z,28.40
2024-01-31T06:15:41.678Z,28.55
2024-01-31T06:16:41.738Z,28.69
2024-01-31T06:17:41.753Z,28.75
2024-01-31T06:18:42.108Z,28.67
2024-01-31T06:19:41.902Z,28.99
2024-01-31T06:20:41.970Z,29.29
2024-01-31T06:21:41.866Z,29.42
2024-01-31T06:22:41.940Z,29.50
2024-01-31T06:23:42.013Z,29.52
2024-01-31T06:24:42.142Z,29.48
2024-01-31T06:25:42.030Z,29.43
2024-01-31T06:26:42.045Z,29.44
2024-01-31T06:27:42.075Z,29.72
2024-01-31T06:28:42.195Z,29.74
2024-01-31T06:29:42.646Z,29.85
2024-01-31T06:30:42.269Z,29.96
2024-01-31T06:31:42.303Z,29.88
2024-01-31T06:32:42.319Z,30.03
2024-01-31T06:33:42.355Z,30.00
2024-01-31T06:34:42.337Z,29.87
2024-01-31T06:35:42.293Z,30.04
2024-01-31T06:36:42.334Z,30.16
2024-01-31T06:37:42.408Z,30.18
2024-01-31T06:38:42.621Z,29.92
2024-01-31T06:39:42.403Z,30.12
2024-01-31T06:40:42.501Z,30.17
2024-01-31T06:41:42.464Z,30.28
2024-01-31T06:42:42.488Z,30.25
2024-01-31T06:43:42.734Z,30.55
2024-01-31T06:44:42.557Z,30.57
2024-01-31T06:45:42.579Z,30.41
2024-01-31T06:46:42.656Z,30.55
2024-01-31T06:47:42.657Z,30.64
2024-01-31T06:48:43.207Z,30.71
2024-01-31T06:49:43.266Z,30.94
2024-01-31T06:50:43.673Z,31.05
2024-01-31T06:51:42.723Z,31.07
2024-01-31T06:52:42.778Z,31.10
2024-01-31T06:53:43.125Z,31.45
2024-01-31T06:54:42.846Z,31.59
2024-01-31T06:55:44.619Z,31.44
2024-01-31T06:56:42.718Z,31.47
2024-01-31T06:57:43.876Z,31.84
2024-01-31T06:58:42.866Z,31.87
2024-01-31T06:59:50.558Z,31.85
2024-01-31T07:00:42.799Z,32.07
2024-01-31T07:01:42.895Z,32.34
2024-01-31T07:02:42.773Z,32.48
2024-01-31T07:03:43.141Z,32.56
2024-01-31T07:04:44.827Z,32.74
2024-01-31T07:05:42.819Z,33.02
2024-01-31T07:06:42.790Z,33.10
2024-01-31T07:07:46.123Z,33.41
2024-01-31T07:08:43.175Z,33.53
2024-01-31T07:09:42.990Z,33.57
2024-01-31T07:10:42.844Z,33.52
2024-01-31T07:11:42.770Z,33.88
2024-01-31T07:12:43.743Z,33.89
2024-01-31T07:13:43.256Z,33.90
2024-01-31T07:14:42.748Z,34.30
2024-01-31T07:15:42.756Z,34.36
2024-01-31T07:16:42.990Z,34.62
2024-01-31T07:17:43.062Z,34.68
2024-01-31T07:18:43.856Z,34.86
2024-01-31T07:19:43.649Z,34.95
2024-01-31T07:20:42.796Z,35.20
2024-01-31T07:21:42.758Z,35.44
2024-01-31T07:22:42.949Z,35.55
2024-01-31T07:23:44.216Z,35.65
2024-01-31T07:24:42.903Z,35.70
2024-01-31T07:25:43.042Z,35.94
2024-01-31T07:26:44.972Z,35.96
2024-01-31T07:27:42.983Z,36.36
2024-01-31T07:28:43.387Z,36.53
2024-01-31T07:29:43.411Z,36.63
2024-01-31T07:30:43.087Z,36.78
2024-01-31T07:31:43.408Z,36.78
2024-01-31T07:32:43.186Z,36.92
2024-01-31T07:33:43.146Z,37.21
2024-01-31T07:34:43.772Z,37.35
2024-01-31T07:35:43.391Z,37.26
2024-01-31T07:36:43.002Z,37.35
2024-01-31T07:37:44.985Z,37.45
2024-01-31T07:38:43.003Z,37.47
2024-01-31T07:39:43.220Z,37.90
2024-01-31T07:40:43.094Z,37.91
2024-01-31T07:41:43.006Z,37.91
2024-01-31T07:42:43.611Z,38.06
2024-01-31T07:43:44.763Z,38.29
2024-01-31T07:44:43.007Z,38.22
2024-01-31T07:45:43.102Z,38.46
2024-01-31T07:46:43.136Z,38.53
2024-01-31T07:47:43.033Z,38.18
2024-01-31T07:48:43.084Z,37.96
2024-01-31T07:49:51.089Z,37.64
2024-01-31T07:50:44.149Z,37.49
2024-01-31T07:51:43.333Z,37.17
2024-01-31T07:52:43.557Z,36.84
2024-01-31T07:53:43.639Z,36.58
2024-01-31T07:54:43.518Z,36.08
2024-01-31T07:55:43.827Z,36.15
2024-01-31T07:56:43.419Z,36.20
2024-01-31T07:57:43.398Z,36.27
2024-01-31T07:58:43.344Z,36.40
2024-01-31T07:59:43.496Z,36.53
2024-01-31T08:00:43.570Z,36.66
2024-01-31T08:01:43.811Z,36.75
2024-01-31T08:02:43.893Z,36.87
2024-01-31T08:03:43.881Z,36.98
2024-01-31T08:04:43.842Z,37.16
2024-01-31T08:05:43.909Z,37.33
2024-01-31T08:06:43.881Z,37.40
2024-01-31T08:07:43.895Z,37.67
2024-01-31T08:08:43.858Z,37.36
2024-01-31T08:09:43.761Z,37.27
2024-01-31T08:10:44.002Z,37.25
2024-01-31T08:11:44.296Z,36.49
2024-01-31T08:12:44.531Z,36.74
2024-01-31T08:13:44.262Z,36.69
2024-01-31T08:14:44.306Z,35.81
2024-01-31T08:15:43.965Z,35.52
2024-01-31T08:16:44.058Z,35.54
2024-01-31T08:17:44.788Z,35.77
2024-01-31T08:18:44.597Z,35.72
2024-01-31T08:19:44.315Z,35.81
2024-01-31T08:20:44.881Z,35.92
2024-01-31T08:21:44.474Z,36.04
2024-01-31T08:22:44.816Z,36.22
2024-01-31T08:23:45.223Z,36.39
2024-01-31T08:24:44.954Z,36.57
2024-01-31T08:25:45.213Z,36.82
2024-01-31T08:26:44.934Z,36.97
2024-01-31T08:27:45.149Z,37.09
2024-01-31T08:28:45.008Z,37.23
2024-01-31T08:29:45.036Z,37.52
2024-01-31T08:30:44.948Z,37.56
2024-01-31T08:31:45.037Z,37.66
2024-01-31T08:32:44.983Z,37.69
2024-01-31T08:33:46.183Z,37.89
2024-01-31T08:34:44.936Z,37.97
2024-01-31T08:35:45.338Z,38.22
2024-01-31T08:36:45.181Z,35.02
2024-01-31T08:37:45.413Z,33.66
2024-01-31T08:38:45.566Z,33.53
2024-01-31T08:39:45.018Z,32.66
2024-01-31T08:40:46.323Z,32.54
2024-01-31T08:41:44.999Z,32.47
2024-01-31T08:42:45.049Z,31.66
2024-01-31T08:43:45.610Z,30.10
2024-01-31T08:44:45.314Z,27.32
2024-01-31T08:45:45.217Z,28.07
2024-01-31T08:47:44.302Z,29.14
2024-01-31T08:48:45.522Z,29.45
2024-01-31T08:49:45.235Z,29.96
2024-01-31T08:50:45.263Z,30.60
2024-01-31T08:51:45.193Z,30.83
2024-01-31T08:52:45.350Z,31.10
2024-01-31T08:53:45.188Z,31.39
2024-01-31T08:54:45.343Z,31.58
2024-01-31T08:55:55.270Z,31.93
2024-01-31T08:56:45.270Z,32.29
2024-01-31T08:57:46.605Z,32.32
2024-01-31T08:58:46.538Z,32.63
2024-01-31T08:59:45.204Z,32.55
2024-01-31T09:00:45.723Z,32.64
2024-01-31T09:01:45.453Z,32.56
2024-01-31T09:02:45.336Z,32.56
2024-01-31T09:03:45.837Z,32.51
2024-01-31T09:04:45.906Z,32.45
2024-01-31T09:05:46.497Z,32.41
2024-01-31T09:06:45.357Z,32.38
2024-01-31T09:07:45.363Z,32.21
2024-01-31T09:08:45.687Z,32.12
2024-01-31T09:09:45.339Z,32.09
2024-01-31T09:10:45.737Z,31.95
2024-01-31T09:11:46.392Z,31.84
2024-01-31T09:12:45.378Z,31.67
2024-01-31T09:13:45.457Z,31.21
2024-01-31T09:14:45.413Z,31.26
2024-01-31T09:15:45.687Z,31.40
2024-01-31T09:16:45.523Z,31.46
2024-01-31T09:17:45.506Z,31.54
2024-01-31T09:18:45.984Z,31.70
2024-01-31T09:19:47.668Z,31.86
2024-01-31T09:20:45.556Z,32.12
2024-01-31T09:21:45.538Z,32.38
2024-01-31T09:22:45.680Z,32.59
2024-01-31T09:23:45.546Z,32.73
2024-01-31T09:24:45.546Z,32.88
2024-01-31T09:25:45.668Z,32.97
2024-01-31T09:26:45.550Z,33.22
2024-01-31T09:27:45.551Z,33.34
2024-01-31T09:28:45.786Z,33.48
2024-01-31T09:29:45.555Z,33.51
2024-01-31T09:30:46.240Z,33.60
2024-01-31T09:31:46.720Z,33.68
2024-01-31T09:32:45.618Z,33.84
2024-01-31T09:33:45.629Z,34.10
2024-01-31T09:34:45.838Z,34.18
2024-01-31T09:35:45.652Z,34.24
2024-01-31T09:36:45.794Z,34.41
2024-01-31T09:37:45.655Z,34.57
2024-01-31T09:38:45.773Z,34.89
2024-01-31T09:39:45.706Z,34.87
2024-01-31T09:40:45.714Z,35.06
2024-01-31T09:41:46.271Z,35.15
2024-01-31T09:42:45.828Z,35.10
2024-01-31T09:43:46.356Z,35.38
2024-01-31T09:44:46.926Z,35.41
2024-01-31T09:45:45.900Z,35.48
2024-01-31T09:46:46.039Z,35.67
2024-01-31T09:47:46.274Z,35.67
2024-01-31T09:48:46.168Z,35.58
2024-01-31T09:49:46.100Z,35.55
2024-01-31T09:50:46.324Z,35.40
2024-01-31T09:51:46.138Z,35.34
2024-01-31T09:52:47.273Z,35.20
2024-01-31T09:53:46.270Z,35.09
2024-01-31T09:54:46.354Z,35.02
2024-01-31T09:55:46.431Z,34.48
2024-01-31T09:56:46.482Z,34.27
2024-01-31T09:57:46.567Z,34.33
2024-01-31T09:58:46.757Z,34.37
2024-01-31T09:59:46.672Z,34.58
2024-01-31T10:00:48.180Z,34.73
2024-01-31T10:01:46.810Z,34.70
2024-01-31T10:02:46.779Z,34.79
2024-01-31T10:03:47.274Z,34.93
2024-01-31T10:04:47.252Z,34.96
2024-01-31T10:05:46.761Z,35.07
2024-01-31T10:06:46.886Z,35.13
2024-01-31T10:07:46.773Z,35.32
2024-01-31T10:08:46.750Z,35.33
2024-01-31T10:09:46.976Z,35.53
2024-01-31T10:10:46.811Z,35.62
2024-01-31T10:11:46.774Z,35.67
2024-01-31T10:12:46.768Z,35.53
2024-01-31T10:13:48.410Z,35.82
2024-01-31T10:14:46.766Z,35.95
2024-01-31T10:15:46.781Z,36.07
2024-01-31T10:16:46.832Z,36.09
2024-01-31T10:17:47.264Z,35.86
2024-01-31T10:18:46.858Z,35.84
2024-01-31T10:19:47.334Z,35.72
2024-01-31T10:20:46.782Z,35.60
2024-01-31T10:21:46.786Z,35.21
2024-01-31T10:22:46.844Z,35.11
2024-01-31T10:23:47.246Z,34.92
2024-01-31T10:24:46.830Z,34.48
2024-01-31T10:25:54.563Z,34.34
2024-01-31T10:26:46.928Z,34.48
2024-01-31T10:27:46.795Z,34.63
2024-01-31T10:28:51.200Z,35.01
2024-01-31T10:29:46.961Z,35.09
2024-01-31T10:30:46.830Z,35.07
2024-01-31T10:31:46.837Z,33.31
2024-01-31T10:32:48.003Z,32.08
2024-01-31T10:33:47.284Z,31.73
2024-01-31T10:35:01.164Z,32.53
2024-01-31T10:36:24.272Z,32.69
2024-01-31T10:37:28.004Z,33.06
2024-01-31T10:37:55.940Z,32.98
2024-01-31T10:38:47.142Z,32.72
2024-01-31T10:39:47.351Z,32.92
2024-01-31T10:40:47.437Z,33.28
2024-01-31T10:41:46.855Z,32.21
2024-01-31T10:42:46.861Z,31.06
2024-01-31T10:43:46.856Z,29.89
2024-01-31T10:44:46.905Z,30.10
2024-01-31T10:45:47.353Z,30.37
2024-01-31T10:46:46.960Z,30.87
2024-01-31T10:47:46.996Z,31.02
2024-01-31T10:48:47.449Z,31.37
2024-01-31T10:49:48.329Z,31.52
2024-01-31T10:50:47.023Z,31.53
2024-01-31T10:51:47.011Z,31.50
2024-01-31T10:52:54.462Z,31.44
2024-01-31T10:53:47.316Z,31.32
2024-01-31T10:54:47.357Z,31.19
2024-01-31T10:55:47.109Z,31.35
2024-01-31T10:56:47.135Z,31.52
2024-01-31T10:57:47.057Z,31.55
2024-01-31T10:58:47.317Z,30.97
2024-01-31T10:59:47.154Z,30.99
2024-01-31T11:00:47.192Z,31.39
2024-01-31T11:01:47.097Z,31.44
2024-01-31T11:02:47.110Z,31.46
2024-01-31T11:03:47.265Z,31.45
2024-01-31T11:04:47.079Z,30.71
2024-01-31T11:05:47.270Z,30.47
2024-01-31T11:06:47.157Z,31.00
2024-01-31T11:07:47.302Z,31.08
2024-01-31T11:08:47.304Z,31.13
2024-01-31T11:09:47.231Z,31.15
2024-01-31T11:10:47.134Z,31.22
2024-01-31T11:11:47.144Z,31.24
2024-01-31T11:12:47.088Z,31.08
2024-01-31T11:13:47.233Z,31.12
2024-01-31T11:14:47.307Z,31.18
2024-01-31T11:15:47.101Z,31.17
2024-01-31T11:16:47.087Z,31.24
2024-01-31T11:17:47.194Z,31.20
2024-01-31T11:18:48.294Z,31.15
2024-01-31T11:19:47.154Z,30.92
2024-01-31T11:20:47.141Z,30.80
2024-01-31T11:21:47.110Z,30.77
2024-01-31T11:22:47.232Z,30.70
2024-01-31T11:23:48.298Z,30.68
2024-01-31T11:24:47.778Z,30.54
2024-01-31T11:25:47.133Z,30.05
2024-01-31T11:26:47.165Z,29.47
2024-01-31T11:27:47.130Z,29.32
2024-01-31T11:28:47.115Z,28.53
2024-01-31T11:29:47.236Z,28.21
2024-01-31T11:30:47.249Z,27.93
2024-01-31T11:31:47.233Z,27.59
2024-01-31T11:32:47.420Z,27.14
2024-01-31T11:33:47.890Z,26.86
2024-01-31T11:34:47.464Z,26.61
2024-01-31T11:35:47.747Z,26.44
2024-01-31T11:36:47.527Z,25.93
2024-01-31T11:37:47.754Z,25.74
2024-01-31T11:38:48.481Z,25.60
2024-01-31T11:39:47.759Z,25.51
2024-01-31T11:40:47.681Z,25.53
2024-01-31T11:41:47.810Z,25.57
2024-01-31T11:42:47.822Z,25.69
2024-01-31T11:43:48.265Z,26.20
2024-01-31T11:44:47.981Z,26.92
2024-01-31T11:45:48.008Z,27.28
2024-01-31T11:46:48.073Z,27.69
2024-01-31T11:47:48.156Z,28.01
2024-01-31T11:48:48.448Z,28.39
2024-01-31T11:49:48.193Z,28.67
2024-01-31T11:50:48.208Z,28.87
2024-01-31T11:51:48.170Z,29.08
2024-01-31T11:52:48.168Z,29.28
2024-01-31T11:53:48.333Z,29.45
2024-01-31T11:54:48.271Z,29.65
2024-01-31T11:55:48.782Z,29.88
2024-01-31T11:56:48.407Z,30.02
2024-01-31T11:57:48.453Z,30.28
2024-01-31T11:58:48.795Z,30.38
2024-01-31T11:59:48.550Z,29.82
2024-01-31T12:00:48.621Z,30.24
2024-01-31T12:01:48.647Z,30.27
2024-01-31T12:02:48.731Z,30.31
2024-01-31T12:03:48.855Z,30.32
2024-01-31T12:04:48.793Z,30.28
2024-01-31T12:05:49.005Z,30.40
2024-01-31T12:06:49.044Z,30.45
2024-01-31T12:07:49.330Z,30.43
2024-01-31T12:08:49.040Z,30.43
2024-01-31T12:09:48.996Z,30.50
2024-01-31T12:10:49.991Z,30.47
2024-01-31T12:11:49.066Z,30.46
2024-01-31T12:12:49.294Z,30.37
2024-01-31T12:13:49.800Z,30.37
2024-01-31T12:14:49.211Z,30.27
2024-01-31T12:15:49.296Z,30.29
2024-01-31T12:16:49.312Z,30.23
2024-01-31T12:17:49.833Z,30.14
2024-01-31T12:18:49.495Z,30.06
2024-01-31T12:19:49.519Z,30.00
2024-01-31T12:20:49.542Z,29.89
2024-01-31T12:21:49.588Z,29.81
2024-01-31T12:22:49.812Z,29.88
2024-01-31T12:23:49.653Z,29.76
2024-01-31T12:24:49.700Z,29.67
2024-01-31T12:25:49.721Z,29.72
2024-01-31T12:26:49.836Z,29.73
2024-01-31T12:27:49.805Z,29.75
2024-01-31T12:28:49.841Z,29.60
2024-01-31T12:29:49.884Z,29.55
2024-01-31T12:30:50.341Z,29.65
2024-01-31T12:31:49.946Z,29.68
2024-01-31T12:32:50.010Z,29.67
2024-01-31T12:33:50.011Z,29.72
2024-01-31T12:34:50.090Z,29.73
2024-01-31T12:35:50.358Z,29.73
2024-01-31T12:36:50.307Z,29.73
2024-01-31T12:37:50.164Z,29.71
2024-01-31T12:38:50.201Z,29.70
2024-01-31T12:39:50.219Z,29.70
2024-01-31T12:40:50.267Z,29.74
2024-01-31T12:41:51.029Z,29.68
2024-01-31T12:42:50.337Z,29.84
2024-01-31T12:43:50.815Z,29.82
2024-01-31T12:44:50.430Z,29.74
2024-01-31T12:45:50.429Z,29.82
2024-01-31T12:46:50.804Z,29.89
2024-01-31T12:47:51.029Z,30.02
2024-01-31T12:48:50.771Z,30.22
2024-01-31T12:49:50.675Z,30.46
2024-01-31T12:50:50.735Z,30.74
2024-01-31T12:51:50.725Z,30.92
2024-01-31T12:52:50.777Z,31.06
2024-01-31T12:53:50.880Z,30.98
2024-01-31T12:54:50.888Z,30.98
2024-01-31T12:55:50.930Z,31.02
2024-01-31T12:56:51.068Z,31.20
2024-01-31T12:57:51.022Z,31.25
2024-01-31T12:58:51.056Z,31.24
2024-01-31T12:59:51.135Z,31.35
2024-01-31T13:00:51.170Z,31.39
2024-01-31T13:01:51.338Z,31.49
2024-01-31T13:02:51.315Z,31.65
2024-01-31T13:03:51.301Z,31.73
2024-01-31T13:04:51.317Z,31.71
2024-01-31T13:05:51.416Z,31.76
2024-01-31T13:06:51.851Z,31.84
2024-01-31T13:07:51.810Z,31.89
2024-01-31T13:08:51.526Z,31.95
2024-01-31T13:09:51.535Z,32.06
2024-01-31T13:10:51.845Z,32.10
2024-01-31T13:11:51.610Z,32.15
2024-01-31T13:12:51.625Z,32.10
2024-01-31T13:13:51.707Z,32.15
2024-01-31T13:14:51.823Z,32.19
2024-01-31T13:15:51.931Z,32.25
2024-01-31T13:16:58.733Z,32.28
2024-01-31T13:17:52.402Z,32.34
2024-01-31T13:18:51.943Z,32.36
2024-01-31T13:19:51.984Z,32.40
2024-01-31T13:20:51.899Z,32.37
2024-01-31T13:21:52.312Z,32.36
2024-01-31T13:22:51.815Z,32.38
2024-01-31T13:23:51.936Z,32.42
2024-01-31T13:24:51.822Z,32.42
2024-01-31T13:25:51.885Z,32.41
2024-01-31T13:26:52.192Z,32.37
2024-01-31T13:27:51.833Z,32.37
2024-01-31T13:28:51.957Z,32.41
2024-01-31T13:29:51.887Z,32.40
2024-01-31T13:30:51.835Z,32.38
2024-01-31T13:31:51.872Z,32.40
2024-01-31T13:32:52.002Z,32.40
2024-01-31T13:33:51.950Z,32.37
2024-01-31T13:34:51.890Z,32.36
2024-01-31T13:35:51.972Z,32.36
2024-01-31T13:36:51.849Z,32.34
2024-01-31T13:37:51.946Z,32.34
2024-01-31T13:38:51.906Z,32.33
2024-01-31T13:39:51.840Z,32.30
2024-01-31T13:40:51.854Z,32.29
2024-01-31T13:41:51.955Z,32.28